Pagrindinis puslapis
METAR-TAF:

METAR-TAF

Oro uostai :

Uberaba, Minas Žeraisas, Brazilija

platuma: 19-47S, ilguma: 047-58W, Aukštis: 807 m

Dabartinis oras

Ataskaita buvo paskelbta 59 minutes, ne 11:00 UTC
Vėjas 8 kt iš Rytų/Šiaurės Rytų, svyruoja nuo Šiaurės Rytų ir Rytų/Pietryčių
Temperatūra 26°C
Drėgmė 34%
Slėgis 1019 hPa
Matomumas: 6000 m

METAR: SBUR 161100Z 07008KT 040V110 6000 NSC 26/09 Q1019

Laikas: 08:59 (11:59 UTC)

Prognozė

Ataskaita buvo paskelbta 9 valandos ir 52 minutes, ne 02:07 UTC
Prognozė galioja nuo 16 metu 06 UTC su 16 metu 18 UTC
Vėjas 12 kt iš Šiaurės Rytų
Matomumas 10 km arba daugiau
nėra debesų žemiau 1500 m ir nėra kamuolinių lietaus debesų
Tapsmas
nuo 16 metu 15 UTC su 16 metu 17 UTC
Vėjas 5 kt iš Rytų
Mažai debesys ne aukštis 4500 ft

TAF: SBUR 160207Z 1606/1618 05012KT CAVOK TN22/1609Z TX33/1617Z BECMG 1615/1617 08005KT FEW045 RMK PGN

Orai ataskaitas ir orų prognozės (METAR, TAF).

turimą stotys yra geltonos ir raudonos taškus žemėlapyje.

Perkelti pele per norėdami pamatyti stoties vardą.

Tada spustelėkite, norėdami matyti oro stebėjimo ir prognozės.

Norėdami pakeisti žemėlapį: spustelėkite ant žalios mygtukų su juodo kryžiaus žemyn,; žalią mygtuką su brūkšneliu, jei norite nutolinti; arba žalių rodyklių gretimoms žemėlapius.


METAR-TAF: